Time;durP1;ratioP1;P1;durP2;ratioP2;P2;SDS_P1;SDS_P2;PMS_P1;PMS_P2;Temp;Humidity;BMP_temperature;BMP_pressure;BME280_temperature;BME280_humidity;BME280_pressure;Samples;Min_cycle;Max_cycle;Signal;HPM_P1;HPM_P2
2022/01/23 00:00:32;;;;;;;823.47;759.47;;;5.30;99.90;;;;;;6217910;23;20444;-82
2022/01/23 00:06:54;;;;;;;822.30;757.97;;;5.40;99.90;;;;;;6210400;23;20463;-82
2022/01/23 00:12:32;;;;;;;835.87;767.70;;;5.50;99.90;;;;;;6217243;23;20466;-83
2022/01/23 00:18:50;;;;;;;831.47;763.57;;;5.40;99.90;;;;;;6175772;23;20431;-82
2022/01/23 00:21:17;;;;;;;831.83;763.57;;;5.40;99.90;;;;;;6095620;23;20423;-82
2022/01/23 00:32:55;;;;;;;829.67;764.27;;;5.40;99.90;;;;;;6077542;23;20533;-83
2022/01/23 00:36:06;;;;;;;827.03;761.73;;;5.50;99.90;;;;;;6212834;23;20721;-82
2022/01/23 00:39:04;;;;;;;828.33;763.70;;;5.50;99.90;;;;;;6115947;23;20482;-82
2022/01/23 00:41:31;;;;;;;832.30;766.53;;;5.50;99.90;;;;;;6218389;23;20428;-83
2022/01/23 00:47:22;;;;;;;832.70;767.10;;;5.40;99.90;;;;;;6204475;23;20974;-82
2022/01/23 00:50:31;;;;;;;816.77;753.27;;;5.40;99.90;;;;;;6217298;23;20478;-82
2022/01/23 00:53:39;;;;;;;825.17;761.10;;;5.50;99.90;;;;;;6217953;23;20412;-82
2022/01/23 00:56:36;;;;;;;818.83;754.67;;;5.60;99.90;;;;;;6218758;23;20506;-82
2022/01/23 01:02:42;;;;;;;824.63;761.80;;;5.50;99.90;;;;;;6108269;23;20415;-84
2022/01/23 01:05:47;;;;;;;;;;;;;;;;;;;;;
2022/01/23 01:11:59;;;;;;;816.83;754.90;;;5.40;99.90;;;;;;6172816;23;20436;-82
2022/01/23 01:30:25;;;;;;;822.83;759.07;;;5.30;99.90;;;;;;6229071;23;20546;-83
2022/01/23 01:39:38;;;;;;;829.50;763.40;;;5.30;99.90;;;;;;6225949;23;20435;-82
2022/01/23 01:45:47;;;;;;;839.90;773.23;;;5.30;99.90;;;;;;6123211;23;20411;-82
2022/01/23 01:48:44;;;;;;;835.30;767.07;;;5.20;99.90;;;;;;6094102;23;20506;-82
2022/01/23 01:51:52;;;;;;;844.30;775.40;;;5.30;99.90;;;;;;6093345;23;20435;-84
2022/01/23 01:54:42;;;;;;;837.40;769.77;;;5.30;99.90;;;;;;6217593;23;20442;-82
2022/01/23 01:57:43;;;;;;;832.07;765.07;;;5.30;99.90;;;;;;6219521;23;20459;-82
2022/01/23 02:00:46;;;;;;;833.23;766.20;;;5.40;99.90;;;;;;6228916;23;20538;-81
2022/01/23 02:09:35;;;;;;;838.33;768.03;;;5.30;99.90;;;;;;6077693;23;20442;-82
2022/01/23 02:12:41;;;;;;;;;;;;;;;;;;;;;
2022/01/23 02:52:51;;;;;;;839.80;770.60;;;5.30;99.90;;;;;;6219651;23;20486;-83
2022/01/23 02:55:35;;;;;;;838.27;769.33;;;5.20;99.90;;;;;;6219447;23;20416;-82
2022/01/23 03:31:59;;;;;;;844.20;775.17;;;5.10;99.90;;;;;;6046340;23;20483;-83
2022/01/23 03:34:45;;;;;;;830.57;762.70;;;5.20;99.90;;;;;;6160941;23;20974;-82
2022/01/23 03:37:16;;;;;;;831.90;765.13;;;5.10;99.90;;;;;;6196309;23;20412;-82
2022/01/23 03:40:05;;;;;;;830.20;764.90;;;5.20;99.90;;;;;;6184143;23;21237;-82
2022/01/23 03:42:55;;;;;;;832.77;768.30;;;5.30;99.90;;;;;;6196921;23;20416;-82
2022/01/23 03:54:07;;;;;;;828.70;762.83;;;5.30;99.90;;;;;;6184973;23;20808;-82
2022/01/23 03:56:33;;;;;;;820.33;754.13;;;5.20;99.90;;;;;;6198253;23;20825;-83
2022/01/23 03:59:00;;;;;;;831.03;764.13;;;5.20;99.90;;;;;;6188518;23;20437;-83
2022/01/23 04:01:27;;;;;;;843.67;774.90;;;5.20;99.90;;;;;;6187895;23;20393;-83
2022/01/23 04:03:57;;;;;;;834.37;767.97;;;5.20;99.90;;;;;;6196713;23;20413;-83
2022/01/23 04:06:26;;;;;;;826.27;760.80;;;5.30;99.90;;;;;;6197211;23;20636;-83
2022/01/23 04:08:53;;;;;;;835.90;769.23;;;5.20;99.90;;;;;;6198033;23;20421;-83
2022/01/23 04:11:20;;;;;;;836.30;768.40;;;5.20;99.90;;;;;;6197827;23;20436;-83
2022/01/23 04:13:51;;;;;;;842.10;773.57;;;5.30;99.90;;;;;;6197897;23;20506;-84
2022/01/23 04:19:30;;;;;;;844.80;774.07;;;5.20;99.90;;;;;;6145611;23;20429;-83
2022/01/23 04:33:15;;;;;;;848.03;772.47;;;5.10;99.90;;;;;;6188804;23;20452;-83
2022/01/23 04:45:13;;;;;;;855.53;776.53;;;5.10;99.90;;;;;;6188245;23;20405;-83
2022/01/23 04:47:51;;;;;;;852.17;774.47;;;5.00;99.90;;;;;;6197088;23;20404;-82
2022/01/23 05:01:03;;;;;;;848.57;765.87;;;5.00;99.90;;;;;;6190518;23;20954;-82
2022/01/23 05:06:23;;;;;;;853.50;773.07;;;5.00;99.90;;;;;;6190831;23;20401;-84
2022/01/23 05:08:50;;;;;;;836.23;756.17;;;5.10;99.90;;;;;;6188242;23;20432;-83
2022/01/23 05:11:20;;;;;;;839.93;759.33;;;5.00;99.90;;;;;;6190890;23;20479;-83
2022/01/23 05:13:47;;;;;;;853.13;769.83;;;5.00;99.90;;;;;;6190014;23;20907;-83
2022/01/23 05:16:14;;;;;;;847.33;765.30;;;5.00;99.90;;;;;;6189655;23;20409;-83
2022/01/23 05:18:46;;;;;;;838.83;757.27;;;5.00;99.90;;;;;;6191161;23;20475;-82
2022/01/23 05:21:38;;;;;;;843.30;761.30;;;5.00;99.90;;;;;;6199154;23;20404;-84
2022/01/23 05:24:06;;;;;;;856.97;774.67;;;5.10;99.90;;;;;;6190053;23;20409;-83
2022/01/23 05:26:42;;;;;;;856.43;773.67;;;5.00;99.90;;;;;;6190134;23;20792;-83
2022/01/23 05:29:09;;;;;;;846.60;762.27;;;5.00;99.90;;;;;;6188982;23;20433;-83
2022/01/23 05:31:35;;;;;;;851.83;769.67;;;5.00;99.90;;;;;;6190145;23;20448;-83
2022/01/23 05:34:02;;;;;;;850.83;768.17;;;5.00;99.90;;;;;;6190306;23;20413;-83
2022/01/23 05:36:29;;;;;;;854.43;770.43;;;5.00;99.90;;;;;;6190135;23;20417;-83
2022/01/23 05:38:56;;;;;;;853.50;770.87;;;5.10;99.90;;;;;;6189442;23;20439;-83
2022/01/23 05:41:22;;;;;;;855.07;772.37;;;5.00;99.90;;;;;;6190839;23;20415;-82
2022/01/23 05:43:51;;;;;;;854.97;772.87;;;5.10;99.90;;;;;;6199350;23;20416;-83
2022/01/23 05:46:18;;;;;;;860.20;778.63;;;5.10;99.90;;;;;;6190203;23;20747;-83
2022/01/23 05:48:45;;;;;;;851.57;770.27;;;5.10;99.90;;;;;;6189865;23;20437;-82
2022/01/23 05:51:12;;;;;;;840.40;761.47;;;5.10;99.90;;;;;;6189283;23;20905;-83
2022/01/23 05:53:50;;;;;;;842.13;763.13;;;5.10;99.90;;;;;;6200295;23;20417;-83
2022/01/23 05:56:17;;;;;;;847.53;768.70;;;5.10;99.90;;;;;;6189914;23;20409;-83
2022/01/23 05:58:46;;;;;;;842.00;763.77;;;5.10;99.90;;;;;;6190561;23;20433;-83
2022/01/23 06:01:14;;;;;;;843.30;765.77;;;5.10;99.90;;;;;;6190520;23;20403;-82
2022/01/23 06:03:41;;;;;;;844.63;767.73;;;5.00;99.90;;;;;;6192726;23;20420;-83
2022/01/23 06:06:08;;;;;;;842.37;765.13;;;5.10;99.90;;;;;;6192564;23;20409;-83
2022/01/23 06:08:35;;;;;;;831.43;756.70;;;5.00;99.90;;;;;;6191567;23;20497;-83
2022/01/23 06:11:02;;;;;;;826.57;754.87;;;5.10;99.90;;;;;;6190161;23;20413;-83
2022/01/23 06:13:32;;;;;;;825.30;754.80;;;5.00;99.90;;;;;;6191425;23;20481;-83
2022/01/23 06:16:05;;;;;;;835.97;764.67;;;5.00;99.90;;;;;;6190313;23;20747;-83
2022/01/23 06:18:38;;;;;;;833.40;762.77;;;4.90;99.90;;;;;;6201393;23;20437;-83
2022/01/23 06:21:06;;;;;;;828.57;758.93;;;5.00;99.90;;;;;;6192105;23;20432;-83
2022/01/23 06:23:35;;;;;;;833.63;764.03;;;5.00;99.90;;;;;;6190261;23;20437;-83
2022/01/23 06:26:06;;;;;;;834.67;765.67;;;5.00;99.90;;;;;;6201446;23;20459;-83
2022/01/23 06:28:43;;;;;;;838.83;769.13;;;5.00;99.90;;;;;;6201055;23;20752;-83
2022/01/23 06:31:12;;;;;;;843.53;774.17;;;5.00;99.90;;;;;;6200775;23;20486;-83
2022/01/23 06:33:42;;;;;;;843.73;773.83;;;4.90;99.90;;;;;;6190899;23;20809;-83
2022/01/23 06:36:09;;;;;;;844.33;774.80;;;5.00;99.90;;;;;;6201559;23;21071;-82
2022/01/23 06:38:47;;;;;;;839.80;770.20;;;4.90;99.90;;;;;;6190427;23;20447;-83
2022/01/23 06:41:15;;;;;;;832.80;763.80;;;5.00;99.90;;;;;;6198719;23;20504;-83
2022/01/23 06:43:44;;;;;;;844.60;775.07;;;5.00;99.90;;;;;;6198896;23;20476;-83
2022/01/23 06:46:19;;;;;;;864.57;794.87;;;5.00;99.90;;;;;;6199386;23;20405;-84
2022/01/23 06:48:53;;;;;;;839.37;769.10;;;5.00;99.90;;;;;;6199356;23;20519;-83
2022/01/23 06:51:26;;;;;;;846.10;774.83;;;5.00;99.90;;;;;;6188455;23;20404;-83
2022/01/23 06:54:00;;;;;;;848.37;776.03;;;5.00;99.90;;;;;;6199990;23;20409;-83
2022/01/23 06:56:27;;;;;;;855.17;782.47;;;5.00;99.90;;;;;;6198973;23;20443;-83
2022/01/23 06:58:54;;;;;;;864.57;790.63;;;4.80;99.90;;;;;;6189880;23;20539;-84
2022/01/23 07:01:27;;;;;;;890.53;813.07;;;4.90;99.90;;;;;;6189873;23;20393;-83
2022/01/23 07:03:55;;;;;;;859.57;784.73;;;5.00;99.90;;;;;;6201521;23;20427;-83
2022/01/23 07:06:24;;;;;;;858.63;783.70;;;4.90;99.90;;;;;;6191127;23;20409;-83
2022/01/23 07:08:51;;;;;;;864.70;788.90;;;4.90;99.90;;;;;;6199763;23;20432;-84
2022/01/23 07:15:19;;;;;;;853.43;777.93;;;4.80;99.90;;;;;;6037502;23;20420;-83
2022/01/23 07:27:37;;;;;;;857.23;780.30;;;4.90;99.90;;;;;;6036906;23;20420;-83
2022/01/23 07:30:49;;;;;;;;;;;;;;;;;;;;;
2022/01/23 07:36:37;;;;;;;858.07;781.60;;;4.90;99.90;;;;;;6176049;23;20436;-82
2022/01/23 07:39:50;;;;;;;;;;;;;;;;;;;;;
2022/01/23 07:46:21;;;;;;;;;;;;;;;;;;;;;
2022/01/23 07:55:06;;;;;;;869.73;791.40;;;4.90;99.90;;;;;;6184402;23;20433;-83
2022/01/23 07:58:24;;;;;;;859.23;780.73;;;4.80;99.90;;;;;;6105128;23;20456;-82
2022/01/23 08:11:22;;;;;;;854.83;775.97;;;5.00;99.90;;;;;;6067165;23;20421;-83
2022/01/23 08:20:51;;;;;;;847.70;769.73;;;5.10;99.90;;;;;;6084056;23;20744;-82
2022/01/23 08:26:33;;;;;;;865.37;787.87;;;5.20;99.90;;;;;;6137428;23;20417;-82
2022/01/23 08:29:24;;;;;;;859.33;783.30;;;5.30;99.90;;;;;;6187767;23;20545;-82
2022/01/23 08:39:08;;;;;;;839.70;765.37;;;5.40;99.90;;;;;;6190490;23;20444;-82
2022/01/23 08:41:52;;;;;;;844.40;768.40;;;5.40;99.90;;;;;;6200963;23;20914;-81
2022/01/23 08:44:22;;;;;;;846.87;771.40;;;5.40;99.90;;;;;;6194675;23;20393;-82
2022/01/23 08:46:49;;;;;;;837.87;764.90;;;5.50;99.90;;;;;;6193749;23;21005;-82
2022/01/23 08:49:46;;;;;;;;;;;;;;;;;;;;;
2022/01/23 08:55:12;;;;;;;839.20;767.80;;;5.70;99.90;;;;;;6190188;23;20409;-81
2022/01/23 09:01:18;;;;;;;832.13;763.63;;;5.70;99.90;;;;;;6197915;23;20229;-84
2022/01/23 09:03:45;;;;;;;852.77;781.70;;;5.70;99.90;;;;;;6198964;23;20918;-84
2022/01/23 09:06:22;;;;;;;838.17;770.97;;;5.80;99.90;;;;;;6196908;23;20476;-83
2022/01/23 09:08:54;;;;;;;832.60;766.80;;;5.80;99.90;;;;;;6197301;23;20433;-83
2022/01/23 09:11:39;;;;;;;827.57;762.67;;;5.90;99.90;;;;;;6200320;23;20420;-83
2022/01/23 09:14:39;;;;;;;817.37;756.30;;;5.80;99.90;;;;;;6199817;23;20425;-82
2022/01/23 09:17:19;;;;;;;828.10;766.30;;;6.00;99.90;;;;;;6198213;23;20745;-83
2022/01/23 09:27:41;;;;;;;835.57;773.90;;;6.00;99.90;;;;;;6005829;23;20423;-83
2022/01/23 09:33:46;;;;;;;823.60;764.83;;;6.20;99.90;;;;;;6133791;23;20443;-83
2022/01/23 09:36:15;;;;;;;815.33;757.60;;;6.20;99.90;;;;;;6202906;23;20401;-82
2022/01/23 09:38:50;;;;;;;815.80;759.00;;;6.20;99.90;;;;;;6201300;23;20453;-81
2022/01/23 09:41:24;;;;;;;818.10;762.13;;;6.30;99.90;;;;;;6200978;23;20400;-83
2022/01/23 09:44:00;;;;;;;811.10;755.83;;;6.30;99.90;;;;;;6212340;23;20411;-82
2022/01/23 09:46:39;;;;;;;814.47;760.07;;;6.30;99.90;;;;;;6202871;23;20397;-82
2022/01/23 09:49:15;;;;;;;811.70;757.63;;;6.40;99.90;;;;;;6201426;23;20493;-82
2022/01/23 09:51:53;;;;;;;801.53;748.80;;;6.40;99.90;;;;;;6212881;23;20416;-82
2022/01/23 09:57:25;;;;;;;787.93;737.20;;;6.40;99.90;;;;;;6207335;23;20459;-82
2022/01/23 09:59:58;;;;;;;793.07;742.50;;;6.60;99.90;;;;;;6208740;23;20775;-82
2022/01/23 10:02:27;;;;;;;759.40;713.70;;;6.60;99.90;;;;;;6197969;23;20425;-82
2022/01/23 10:04:58;;;;;;;787.77;738.27;;;6.60;99.90;;;;;;6201153;23;20413;-82
2022/01/23 10:07:27;;;;;;;747.90;703.03;;;6.70;99.90;;;;;;6201626;23;20409;-83
2022/01/23 10:10:03;;;;;;;742.07;697.43;;;6.70;99.90;;;;;;6200956;23;20483;-81
2022/01/23 10:12:32;;;;;;;729.20;687.00;;;6.80;99.90;;;;;;6197390;23;20717;-82
2022/01/23 10:14:59;;;;;;;787.10;738.70;;;6.80;99.90;;;;;;6196649;23;20415;-82
2022/01/23 10:17:32;;;;;;;692.33;652.63;;;6.80;99.90;;;;;;6201341;23;20417;-81
2022/01/23 10:20:06;;;;;;;677.10;641.63;;;6.90;99.90;;;;;;6201421;23;20439;-82
2022/01/23 10:22:47;;;;;;;;;;;;;;;;;;;;;
2022/01/23 10:25:17;;;;;;;632.63;598.80;;;6.80;99.90;;;;;;6210865;23;20424;-81
2022/01/23 10:28:04;;;;;;;655.30;620.70;;;6.80;99.90;;;;;;6202662;23;20405;-82
2022/01/23 10:30:33;;;;;;;610.47;578.87;;;6.90;99.90;;;;;;6200820;23;20429;-82
2022/01/23 10:33:11;;;;;;;560.80;532.27;;;6.80;99.90;;;;;;6202712;23;20437;-81
2022/01/23 10:35:58;;;;;;;592.17;561.87;;;6.70;99.90;;;;;;6212531;23;20413;-83
2022/01/23 10:38:27;;;;;;;589.00;558.13;;;6.70;99.90;;;;;;6197633;23;20569;-82
2022/01/23 10:41:06;;;;;;;608.53;576.50;;;6.70;99.90;;;;;;6202117;23;20455;-82
2022/01/23 10:46:52;;;;;;;610.33;578.83;;;6.90;99.90;;;;;;6202501;23;20887;-82
2022/01/23 10:49:20;;;;;;;623.90;591.87;;;6.90;99.90;;;;;;6200162;23;20432;-82
2022/01/23 10:51:50;;;;;;;608.00;577.07;;;7.00;99.90;;;;;;6202909;23;20406;-81
2022/01/23 10:54:24;;;;;;;542.33;516.63;;;7.10;99.90;;;;;;6202070;23;20437;-82
2022/01/23 10:57:00;;;;;;;523.87;498.67;;;7.20;99.90;;;;;;6200705;23;20397;-81
2022/01/23 10:59:40;;;;;;;441.87;420.90;;;7.30;99.90;;;;;;6201234;23;20499;-81
2022/01/23 11:02:09;;;;;;;339.33;323.23;;;7.30;99.90;;;;;;6200615;23;20397;-81
2022/01/23 11:04:54;;;;;;;320.93;304.13;;;7.40;99.90;;;;;;6200552;23;20606;-81
2022/01/23 11:07:22;;;;;;;309.67;293.67;;;7.50;99.90;;;;;;6200271;23;20417;-82
2022/01/23 11:09:55;;;;;;;232.57;218.90;;;7.70;99.90;;;;;;6200373;23;20428;-82
2022/01/23 11:12:41;;;;;;;194.20;181.27;;;7.80;99.90;;;;;;6200819;23;20436;-81
2022/01/23 11:18:15;;;;;;;124.07;113.27;;;7.70;99.90;;;;;;6212361;23;20412;-82
2022/01/23 11:20:51;;;;;;;131.20;120.70;;;7.70;99.90;;;;;;6205196;23;20425;-82
2022/01/23 11:23:34;;;;;;;140.57;130.23;;;7.70;99.90;;;;;;6203993;23;20389;-82
2022/01/23 11:26:21;;;;;;;136.17;125.93;;;7.70;99.90;;;;;;6215617;23;20405;-82
2022/01/23 11:29:16;;;;;;;110.03;100.50;;;7.80;99.90;;;;;;6204061;23;20425;-82
2022/01/23 11:32:04;;;;;;;;;;;;;;;;;;;;;
2022/01/23 11:34:34;;;;;;;80.67;57.50;;;8.00;99.90;;;;;;6211185;23;20528;-81
2022/01/23 11:37:26;;;;;;;71.93;48.83;;;8.10;99.90;;;;;;6214565;23;20419;-82
2022/01/23 11:39:59;;;;;;;67.93;49.20;;;8.20;99.90;;;;;;6204534;23;20432;-82
2022/01/23 11:58:13;;;;;;;69.37;56.00;;;8.00;99.90;;;;;;6171281;23;20493;-82
2022/01/23 12:00:46;;;;;;;71.83;58.67;;;7.80;99.90;;;;;;6113950;23;20534;-81
2022/01/23 12:03:18;;;;;;;74.70;53.20;;;8.00;99.90;;;;;;6175124;23;20394;-82
2022/01/23 12:05:50;;;;;;;59.20;50.37;;;8.10;99.90;;;;;;6173098;23;20795;-82
2022/01/23 12:08:27;;;;;;;73.53;53.40;;;8.00;99.90;;;;;;6174703;23;20440;-83
2022/01/23 12:17:12;;;;;;;67.57;49.60;;;8.30;99.90;;;;;;6150516;23;20456;-83
2022/01/23 12:19:55;;;;;;;70.30;54.37;;;8.20;99.90;;;;;;6183397;23;20440;-82
2022/01/23 12:22:56;;;;;;;68.33;52.60;;;8.10;99.90;;;;;;6175353;23;20398;-82
2022/01/23 12:26:11;;;;;;;65.77;50.73;;;8.00;99.90;;;;;;6174296;23;20441;-82
2022/01/23 12:29:14;;;;;;;72.23;58.50;;;7.90;99.90;;;;;;6037208;23;20442;-81
2022/01/23 12:35:19;;;;;;;59.77;49.87;;;8.00;99.90;;;;;;6079923;23;20441;-83
2022/01/23 12:38:32;;;;;;;58.30;42.87;;;8.10;99.90;;;;;;6169230;23;20414;-82
2022/01/23 12:41:40;;;;;;;69.50;45.40;;;8.20;99.90;;;;;;6172075;23;20422;-82
2022/01/23 12:44:29;;;;;;;63.97;50.80;;;8.30;99.90;;;;;;6027350;23;20865;-83
2022/01/23 12:47:15;;;;;;;;;;;;;;;;;;;;;
2022/01/23 12:53:45;;;;;;;;;;;;;;;;;;;;;
2022/01/23 13:03:08;;;;;;;;;;;;;;;;;;;;;
2022/01/23 13:06:05;;;;;;;;;;;;;;;;;;;;;
2022/01/23 13:08:38;;;;;;;54.23;34.77;;;8.10;99.90;;;;;;6199814;23;20417;-83
2022/01/23 13:11:49;;;;;;;55.23;31.93;;;8.10;99.90;;;;;;6201607;23;20428;-85
2022/01/23 13:14:28;;;;;;;48.43;31.30;;;8.10;99.90;;;;;;6204712;23;20439;-82
2022/01/23 13:26:22;;;;;;;57.07;35.50;;;8.20;99.90;;;;;;6166714;23;20475;-82
2022/01/23 13:32:00;;;;;;;57.37;37.90;;;8.10;99.90;;;;;;6190934;23;20405;-82
2022/01/23 13:34:49;;;;;;;56.90;37.60;;;8.00;99.90;;;;;;6204380;23;20420;-82
2022/01/23 13:37:42;;;;;;;59.57;39.70;;;8.00;99.90;;;;;;6204970;23;20397;-82
2022/01/23 13:40:33;;;;;;;58.97;38.37;;;7.90;99.90;;;;;;6125639;23;20500;-81
2022/01/23 13:51:37;;;;;;;62.33;40.27;;;7.80;99.90;;;;;;6205356;23;20501;-81
2022/01/23 13:57:36;;;;;;;66.17;40.07;;;7.80;99.90;;;;;;6199579;23;20949;-82
2022/01/23 13:59:59;;;;;;;71.07;64.00;;;7.60;99.90;;;;;;6208037;23;20439;-82
2022/01/23 14:02:34;;;;;;;85.40;76.20;;;7.50;99.90;;;;;;6204303;23;20393;-82
2022/01/23 14:05:13;;;;;;;89.27;80.90;;;7.60;99.90;;;;;;6202955;23;20401;-82
2022/01/23 14:07:42;;;;;;;108.67;99.43;;;7.60;99.90;;;;;;6203762;23;20411;-82
2022/01/23 14:10:16;;;;;;;111.87;102.57;;;7.40;99.90;;;;;;6203431;23;20440;-81
2022/01/23 14:13:00;;;;;;;;;;;;;;;;;;;;;
2022/01/23 14:15:29;;;;;;;130.33;120.67;;;7.60;99.90;;;;;;6209629;23;20441;-82
2022/01/23 14:18:03;;;;;;;163.27;151.53;;;7.40;99.90;;;;;;6215578;23;20477;-81
2022/01/23 14:20:34;;;;;;;141.27;130.43;;;7.50;99.90;;;;;;6206291;23;20418;-82
2022/01/23 14:23:17;;;;;;;130.73;120.57;;;7.50;99.90;;;;;;6204691;23;20484;-82
2022/01/23 14:26:00;;;;;;;124.70;115.10;;;7.50;99.90;;;;;;6205825;23;20400;-82
2022/01/23 14:35:21;;;;;;;90.63;82.53;;;7.40;99.90;;;;;;6163186;23;20942;-82
2022/01/23 14:38:47;;;;;;;;;;;;;;;;;;;;;
2022/01/23 14:42:01;;;;;;;;;;;;;;;;;;;;;
2022/01/23 14:45:06;;;;;;;172.03;161.37;;;7.40;99.90;;;;;;6141646;23;20438;-82
2022/01/23 14:48:17;;;;;;;;;;;;;;;;;;;;;
2022/01/23 14:55:13;;;;;;;;;;;;;;;;;;;;;
2022/01/23 14:58:18;;;;;;;;;;;;;;;;;;;;;
2022/01/23 15:04:42;;;;;;;;;;;;;;;;;;;;;
2022/01/23 15:11:11;;;;;;;297.47;283.30;;;7.00;99.90;;;;;;6076927;23;20459;-85
2022/01/23 15:14:26;;;;;;;;;;;;;;;;;;;;;
2022/01/23 15:20:55;;;;;;;233.83;222.23;;;6.90;99.90;;;;;;5894011;23;20445;-84
2022/01/23 15:23:43;;;;;;;204.33;193.13;;;6.80;99.90;;;;;;6203602;23;20409;-84
2022/01/23 15:26:14;;;;;;;214.17;202.70;;;6.80;99.90;;;;;;6204620;23;20416;-85
2022/01/23 15:32:35;;;;;;;;;;;;;;;;;;;;;
2022/01/23 15:42:35;;;;;;;;;;;;;;;;;;;;;
2022/01/23 15:48:52;;;;;;;569.37;541.73;;;6.40;99.90;;;;;;6109436;23;20458;-85
2022/01/23 15:55:18;;;;;;;614.60;583.00;;;6.30;99.90;;;;;;6145946;23;20938;-84
2022/01/23 16:04:24;;;;;;;672.23;635.77;;;6.10;99.90;;;;;;6150880;23;20476;-84
2022/01/23 16:08:00;;;;;;;684.63;647.03;;;5.90;99.90;;;;;;6202249;23;20448;-85
2022/01/23 16:17:43;;;;;;;634.83;602.60;;;5.90;99.90;;;;;;5928094;24;20403;-85
2022/01/23 16:24:14;;;;;;;657.97;623.60;;;5.80;99.90;;;;;;6097845;23;20415;-84
2022/01/23 16:26:50;;;;;;;659.07;624.67;;;5.70;99.90;;;;;;6164892;23;20432;-85
2022/01/23 16:29:20;;;;;;;678.77;642.47;;;5.70;99.90;;;;;;6203805;23;20492;-84
2022/01/23 16:31:57;;;;;;;684.93;648.23;;;5.70;99.90;;;;;;6203271;23;20432;-84
2022/01/23 16:34:24;;;;;;;702.40;662.90;;;5.70;99.90;;;;;;6202816;23;20411;-84
2022/01/23 16:36:59;;;;;;;708.07;668.83;;;5.70;99.90;;;;;;6213039;23;20416;-85
2022/01/23 16:39:44;;;;;;;;;;;;;;;;;;;;;
2022/01/23 16:42:43;;;;;;;;;;;;;;;;;;;;;
2022/01/23 16:45:25;;;;;;;;;;;;;;;;;;;;;
2022/01/23 16:47:53;;;;;;;714.93;674.97;;;5.60;99.90;;;;;;6165511;23;20420;-86
2022/01/23 16:54:06;;;;;;;;;;;;;;;;;;;;;
2022/01/23 16:56:47;;;;;;;;;;;;;;;;;;;;;
2022/01/23 16:59:14;;;;;;;738.73;695.23;;;5.50;99.90;;;;;;6204153;23;20440;-84
2022/01/23 17:01:50;;;;;;;724.17;681.17;;;5.60;99.90;;;;;;6198427;23;20419;-84
2022/01/23 17:04:19;;;;;;;723.50;681.13;;;5.50;99.90;;;;;;6198884;23;20402;-83
2022/01/23 17:07:01;;;;;;;;;;;;;;;;;;;;;
2022/01/23 17:10:06;;;;;;;729.17;686.27;;;5.60;99.90;;;;;;6212716;23;20424;-85
2022/01/23 17:13:11;;;;;;;736.83;691.47;;;5.50;99.90;;;;;;6102800;23;20450;-84
2022/01/23 17:15:56;;;;;;;740.07;695.63;;;5.60;99.90;;;;;;6128115;23;20512;-84
2022/01/23 17:18:37;;;;;;;;;;;;;;;;;;;;;
2022/01/23 17:21:40;;;;;;;765.23;717.97;;;5.50;99.90;;;;;;6210757;23;20412;-85
2022/01/23 17:31:05;;;;;;;;;;;;;;;;;;;;;
2022/01/23 17:33:37;;;;;;;776.10;727.80;;;5.40;99.90;;;;;;6083317;23;20424;-85
2022/01/23 17:36:44;;;;;;;770.73;722.93;;;5.40;99.90;;;;;;6198576;23;21062;-84
2022/01/23 17:39:35;;;;;;;;;;;;;;;;;;;;;
2022/01/23 17:42:05;;;;;;;767.57;721.00;;;5.50;99.90;;;;;;6202196;23;20413;-84
2022/01/23 17:44:50;;;;;;;763.07;715.83;;;5.40;99.90;;;;;;6201126;23;20409;-84
2022/01/23 17:47:33;;;;;;;771.83;724.80;;;5.40;99.90;;;;;;6199955;23;20432;-85
2022/01/23 17:50:24;;;;;;;776.90;730.17;;;5.40;99.90;;;;;;6203358;23;20437;-84
2022/01/23 17:52:57;;;;;;;775.03;728.27;;;5.40;99.90;;;;;;6195124;23;20419;-83
2022/01/23 17:55:28;;;;;;;770.73;724.87;;;5.40;99.90;;;;;;6214684;23;20856;-85
2022/01/23 17:58:02;;;;;;;773.40;726.53;;;5.40;99.90;;;;;;6204311;23;20467;-84
2022/01/23 18:00:32;;;;;;;776.67;730.57;;;5.40;99.90;;;;;;6215290;23;20417;-83
2022/01/23 18:03:01;;;;;;;777.53;731.73;;;5.20;99.90;;;;;;6205367;23;20405;-84
2022/01/23 18:05:33;;;;;;;759.10;714.33;;;5.30;99.90;;;;;;6214276;23;20757;-84
2022/01/23 18:08:10;;;;;;;687.07;652.37;;;5.40;99.90;;;;;;6204746;23;20424;-84
2022/01/23 18:10:37;;;;;;;320.03;307.63;;;5.30;99.90;;;;;;6214265;23;20412;-84
2022/01/23 18:13:06;;;;;;;57.60;54.03;;;5.30;99.90;;;;;;6205044;23;20433;-83
2022/01/23 18:15:36;;;;;;;18.70;12.13;;;5.10;99.90;;;;;;6203793;23;20500;-85
2022/01/23 18:18:40;;;;;;;18.53;12.80;;;5.20;99.90;;;;;;6214109;23;20732;-83
2022/01/23 18:21:11;;;;;;;17.33;10.10;;;5.10;99.90;;;;;;6130225;23;20447;-83
2022/01/23 18:23:46;;;;;;;17.97;10.80;;;5.10;99.90;;;;;;6214503;23;20413;-84
2022/01/23 18:26:23;;;;;;;17.93;10.67;;;5.00;99.90;;;;;;6204520;23;20481;-85
2022/01/23 18:28:54;;;;;;;15.47;9.57;;;4.90;99.90;;;;;;6204437;23;20436;-84
2022/01/23 18:31:25;;;;;;;17.27;11.07;;;4.80;99.90;;;;;;6214518;23;20416;-85
2022/01/23 18:33:55;;;;;;;15.63;10.03;;;4.80;99.90;;;;;;6213770;23;20421;-84
2022/01/23 18:36:30;;;;;;;15.00;10.30;;;4.80;99.40;;;;;;6213392;23;20992;-85
2022/01/23 18:39:07;;;;;;;20.07;12.83;;;4.80;99.80;;;;;;6199493;23;20443;-84
2022/01/23 18:41:52;;;;;;;;;;;;;;;;;;;;;
2022/01/23 18:44:19;;;;;;;24.33;13.67;;;4.60;99.90;;;;;;6208311;23;20416;-85
2022/01/23 18:46:46;;;;;;;21.33;16.57;;;4.40;99.90;;;;;;6202648;23;20815;-84
2022/01/23 18:49:13;;;;;;;17.93;12.63;;;4.40;99.90;;;;;;6202487;23;20498;-85
2022/01/23 18:51:44;;;;;;;14.33;9.93;;;4.50;99.90;;;;;;6203048;23;20503;-84
2022/01/23 18:54:16;;;;;;;12.67;9.67;;;4.60;99.40;;;;;;6201274;23;20461;-85
2022/01/23 18:56:54;;;;;;;16.70;10.30;;;4.70;99.30;;;;;;6198327;23;20421;-84
2022/01/23 18:59:22;;;;;;;15.40;9.83;;;4.80;99.10;;;;;;6202247;23;20437;-84
2022/01/23 19:01:53;;;;;;;15.53;10.40;;;4.80;98.80;;;;;;6202962;23;20416;-84
2022/01/23 19:04:21;;;;;;;16.93;11.43;;;4.80;99.30;;;;;;6202933;23;20403;-84
2022/01/23 19:06:53;;;;;;;20.00;13.40;;;4.80;99.60;;;;;;6203527;23;20423;-84
2022/01/23 19:09:23;;;;;;;19.50;13.03;;;4.90;99.90;;;;;;6202616;23;20433;-84
2022/01/23 19:11:52;;;;;;;16.93;11.07;;;5.00;99.90;;;;;;6202999;23;20417;-85
2022/01/23 19:14:21;;;;;;;16.37;12.37;;;5.00;99.10;;;;;;6203036;23;20416;-84
2022/01/23 19:16:49;;;;;;;16.70;11.13;;;5.00;99.10;;;;;;6202824;23;20441;-84
2022/01/23 19:19:16;;;;;;;20.13;11.73;;;5.10;98.80;;;;;;6203217;23;20441;-85
2022/01/23 19:21:43;;;;;;;19.20;12.70;;;5.10;99.00;;;;;;6201840;23;20419;-85
2022/01/23 19:24:13;;;;;;;21.73;11.63;;;5.20;98.50;;;;;;6203018;23;20441;-83
2022/01/23 19:26:40;;;;;;;15.80;10.50;;;5.10;98.60;;;;;;6201044;23;20473;-84
2022/01/23 19:29:07;;;;;;;17.37;10.60;;;5.10;98.30;;;;;;6202095;23;20437;-84
2022/01/23 19:31:34;;;;;;;20.17;11.97;;;5.30;98.30;;;;;;6202096;23;20412;-84
2022/01/23 19:34:01;;;;;;;19.10;13.83;;;5.20;98.50;;;;;;6202861;23;20472;-83
2022/01/23 19:36:28;;;;;;;19.27;12.23;;;5.20;98.80;;;;;;6203236;23;20448;-85
2022/01/23 19:38:55;;;;;;;21.20;12.37;;;5.30;98.80;;;;;;6202931;23;20429;-84
2022/01/23 19:41:33;;;;;;;18.43;12.27;;;5.30;98.10;;;;;;6203192;23;20491;-84
2022/01/23 19:44:07;;;;;;;16.67;12.50;;;5.40;97.90;;;;;;6203283;23;20417;-84
2022/01/23 19:46:40;;;;;;;18.00;13.03;;;5.40;98.60;;;;;;6203391;23;20472;-84
2022/01/23 19:49:09;;;;;;;22.80;12.63;;;5.30;98.50;;;;;;6202050;23;20463;-84
2022/01/23 19:51:36;;;;;;;18.97;10.70;;;5.30;97.80;;;;;;6203096;23;20409;-84
2022/01/23 19:54:03;;;;;;;17.13;11.80;;;5.50;96.30;;;;;;6202586;23;20409;-85
2022/01/23 19:56:32;;;;;;;19.10;10.67;;;5.40;96.20;;;;;;6204294;23;20437;-84
2022/01/23 19:59:00;;;;;;;18.33;10.47;;;5.50;96.10;;;;;;6202065;23;20472;-83
2022/01/23 20:01:27;;;;;;;14.97;10.00;;;5.60;96.40;;;;;;6203419;23;20473;-83
2022/01/23 20:03:53;;;;;;;16.50;10.30;;;5.60;95.50;;;;;;6202747;23;20409;-84
2022/01/23 20:06:23;;;;;;;17.43;9.00;;;5.60;95.20;;;;;;6202307;23;20413;-86
2022/01/23 20:08:56;;;;;;;17.60;11.30;;;5.60;94.70;;;;;;6203772;23;20479;-84
2022/01/23 20:14:11;;;;;;;16.80;11.00;;;5.60;96.20;;;;;;6214256;23;20396;-84
2022/01/23 20:16:38;;;;;;;17.20;9.63;;;5.50;96.00;;;;;;6203867;23;20443;-84
2022/01/23 20:19:06;;;;;;;16.97;9.50;;;5.60;95.70;;;;;;6202654;23;20435;-83
2022/01/23 20:21:33;;;;;;;19.73;11.30;;;5.60;95.60;;;;;;6203958;23;20413;-83
2022/01/23 20:24:00;;;;;;;15.67;9.93;;;5.60;95.30;;;;;;6203929;23;20409;-84
2022/01/23 20:26:30;;;;;;;12.97;8.80;;;5.60;94.70;;;;;;6202313;23;20414;-83